sensor_id;sensor_type;location;lat;lon;timestamp;temperature;humidity
23550;DHT22;11953;49.010;8.608;2023-05-07T05:21:28;13.80;99.90
23550;DHT22;11953;49.010;8.608;2023-05-07T05:24:21;13.60;99.90
23550;DHT22;11953;49.010;8.608;2023-05-07T05:27:08;13.80;99.90
23550;DHT22;11953;49.010;8.608;2023-05-07T05:29:55;13.90;99.90
23550;DHT22;11953;49.010;8.608;2023-05-07T05:32:42;14.10;99.90
23550;DHT22;11953;49.010;8.608;2023-05-07T05:35:29;14.40;99.90
23550;DHT22;11953;49.010;8.608;2023-05-07T05:38:20;14.70;99.90
23550;DHT22;11953;49.010;8.608;2023-05-07T05:41:08;15.00;99.90
23550;DHT22;11953;49.010;8.608;2023-05-07T05:43:55;15.10;99.90
23550;DHT22;11953;49.010;8.608;2023-05-07T05:46:43;15.20;99.90
23550;DHT22;11953;49.010;8.608;2023-05-07T05:49:30;15.30;99.90
23550;DHT22;11953;49.010;8.608;2023-05-07T05:52:18;15.40;99.90
23550;DHT22;11953;49.010;8.608;2023-05-07T05:55:07;15.60;99.90
23550;DHT22;11953;49.010;8.608;2023-05-07T05:57:56;16.00;99.90
23550;DHT22;11953;49.010;8.608;2023-05-07T06:00:45;16.50;99.90
23550;DHT22;11953;49.010;8.608;2023-05-07T06:03:34;17.00;99.90
23550;DHT22;11953;49.010;8.608;2023-05-07T06:06:25;17.40;99.90
23550;DHT22;11953;49.010;8.608;2023-05-07T06:09:12;17.60;99.90
23550;DHT22;11953;49.010;8.608;2023-05-07T06:12:02;17.50;99.90
23550;DHT22;11953;49.010;8.608;2023-05-07T06:14:50;17.30;99.90
23550;DHT22;11953;49.010;8.608;2023-05-07T06:17:37;17.10;99.90
23550;DHT22;11953;49.010;8.608;2023-05-07T06:20:24;17.00;99.90
23550;DHT22;11953;49.010;8.608;2023-05-07T06:23:11;17.10;99.90
23550;DHT22;11953;49.010;8.608;2023-05-07T06:26:01;17.40;99.90
23550;DHT22;11953;49.010;8.608;2023-05-07T06:28:55;17.70;99.90
23550;DHT22;11953;49.010;8.608;2023-05-07T06:31:42;18.00;99.90
23550;DHT22;11953;49.010;8.608;2023-05-07T06:34:29;18.40;99.90
23550;DHT22;11953;49.010;8.608;2023-05-07T06:37:16;18.40;99.90
23550;DHT22;11953;49.010;8.608;2023-05-07T06:40:16;18.60;99.90
23550;DHT22;11953;49.010;8.608;2023-05-07T06:43:04;18.70;99.90
23550;DHT22;11953;49.010;8.608;2023-05-07T06:46:06;18.50;99.90
23550;DHT22;11953;49.010;8.608;2023-05-07T06:48:53;18.10;99.90
23550;DHT22;11953;49.010;8.608;2023-05-07T06:51:40;18.50;99.90
23550;DHT22;11953;49.010;8.608;2023-05-07T06:54:27;19.30;99.90
23550;DHT22;11953;49.010;8.608;2023-05-07T06:57:14;19.60;99.90
23550;DHT22;11953;49.010;8.608;2023-05-07T07:00:01;20.30;99.90
23550;DHT22;11953;49.010;8.608;2023-05-07T07:02:50;20.50;99.90
23550;DHT22;11953;49.010;8.608;2023-05-07T07:05:41;20.30;99.90
23550;DHT22;11953;49.010;8.608;2023-05-07T07:08:27;20.20;99.90
23550;DHT22;11953;49.010;8.608;2023-05-07T07:11:15;19.90;99.90
23550;DHT22;11953;49.010;8.608;2023-05-07T07:14:02;20.00;99.90
23550;DHT22;11953;49.010;8.608;2023-05-07T07:16:54;20.10;99.90
23550;DHT22;11953;49.010;8.608;2023-05-07T07:19:43;20.10;99.90
23550;DHT22;11953;49.010;8.608;2023-05-07T07:22:30;21.10;99.90
23550;DHT22;11953;49.010;8.608;2023-05-07T07:25:18;22.00;99.90
23550;DHT22;11953;49.010;8.608;2023-05-07T07:28:06;22.70;99.90
23550;DHT22;11953;49.010;8.608;2023-05-07T07:30:55;22.00;99.90
23550;DHT22;11953;49.010;8.608;2023-05-07T07:33:42;20.70;99.90
23550;DHT22;11953;49.010;8.608;2023-05-07T07:36:31;20.90;99.90
23550;DHT22;11953;49.010;8.608;2023-05-07T07:39:32;21.80;99.90
23550;DHT22;11953;49.010;8.608;2023-05-07T07:42:20;22.80;99.90
23550;DHT22;11953;49.010;8.608;2023-05-07T07:45:08;22.90;99.90
23550;DHT22;11953;49.010;8.608;2023-05-07T07:47:59;22.90;99.90
23550;DHT22;11953;49.010;8.608;2023-05-07T07:50:48;23.30;99.90
23550;DHT22;11953;49.010;8.608;2023-05-07T07:53:38;23.90;99.90
23550;DHT22;11953;49.010;8.608;2023-05-07T07:56:26;23.80;99.90
23550;DHT22;11953;49.010;8.608;2023-05-07T07:59:13;23.40;99.90
23550;DHT22;11953;49.010;8.608;2023-05-07T08:02:05;22.20;99.90
23550;DHT22;11953;49.010;8.608;2023-05-07T08:04:53;21.70;99.90
23550;DHT22;11953;49.010;8.608;2023-05-07T08:07:40;21.80;99.90
23550;DHT22;11953;49.010;8.608;2023-05-07T08:10:29;22.00;99.90
23550;DHT22;11953;49.010;8.608;2023-05-07T08:13:24;22.50;99.90
23550;DHT22;11953;49.010;8.608;2023-05-07T08:16:11;23.40;99.90
23550;DHT22;11953;49.010;8.608;2023-05-07T08:18:59;24.20;99.90
23550;DHT22;11953;49.010;8.608;2023-05-07T08:21:45;24.10;99.90
23550;DHT22;11953;49.010;8.608;2023-05-07T08:24:33;23.70;99.90
23550;DHT22;11953;49.010;8.608;2023-05-07T08:27:22;22.90;99.90
23550;DHT22;11953;49.010;8.608;2023-05-07T08:30:10;22.80;99.90
23550;DHT22;11953;49.010;8.608;2023-05-07T08:32:57;22.40;99.90
23550;DHT22;11953;49.010;8.608;2023-05-07T08:35:43;22.50;99.90
23550;DHT22;11953;49.010;8.608;2023-05-07T08:38:32;23.60;99.90
23550;DHT22;11953;49.010;8.608;2023-05-07T08:41:20;24.40;99.90
23550;DHT22;11953;49.010;8.608;2023-05-07T08:44:12;25.10;99.90
23550;DHT22;11953;49.010;8.608;2023-05-07T08:47:01;25.30;99.90
23550;DHT22;11953;49.010;8.608;2023-05-07T08:49:50;24.90;99.90
23550;DHT22;11953;49.010;8.608;2023-05-07T08:52:37;25.40;99.90
23550;DHT22;11953;49.010;8.608;2023-05-07T08:55:26;26.30;99.90
23550;DHT22;11953;49.010;8.608;2023-05-07T08:58:15;27.00;99.90
23550;DHT22;11953;49.010;8.608;2023-05-07T09:01:07;27.60;99.30
23550;DHT22;11953;49.010;8.608;2023-05-07T09:03:56;28.00;99.30
23550;DHT22;11953;49.010;8.608;2023-05-07T09:06:46;27.60;98.10
23550;DHT22;11953;49.010;8.608;2023-05-07T09:09:33;27.80;98.30
23550;DHT22;11953;49.010;8.608;2023-05-07T09:12:22;28.00;97.50
23550;DHT22;11953;49.010;8.608;2023-05-07T09:15:10;28.40;97.50
23550;DHT22;11953;49.010;8.608;2023-05-07T09:18:00;28.30;96.30
23550;DHT22;11953;49.010;8.608;2023-05-07T09:20:49;28.00;97.10
23550;DHT22;11953;49.010;8.608;2023-05-07T09:23:38;28.20;96.50
23550;DHT22;11953;49.010;8.608;2023-05-07T09:26:25;28.50;96.10
23550;DHT22;11953;49.010;8.608;2023-05-07T09:29:15;28.60;95.60
23550;DHT22;11953;49.010;8.608;2023-05-07T09:32:04;28.30;95.60
23550;DHT22;11953;49.010;8.608;2023-05-07T09:34:53;28.70;95.30
23550;DHT22;11953;49.010;8.608;2023-05-07T09:37:43;28.20;95.00
23550;DHT22;11953;49.010;8.608;2023-05-07T09:40:31;28.00;95.50
23550;DHT22;11953;49.010;8.608;2023-05-07T09:43:23;27.70;94.90
23550;DHT22;11953;49.010;8.608;2023-05-07T09:46:15;27.50;95.80
23550;DHT22;11953;49.010;8.608;2023-05-07T09:49:09;28.00;94.90
23550;DHT22;11953;49.010;8.608;2023-05-07T09:52:03;28.40;95.50
23550;DHT22;11953;49.010;8.608;2023-05-07T09:54:54;29.20;94.70
23550;DHT22;11953;49.010;8.608;2023-05-07T09:57:45;29.10;93.90
23550;DHT22;11953;49.010;8.608;2023-05-07T10:00:33;28.70;93.90
23550;DHT22;11953;49.010;8.608;2023-05-07T10:03:27;29.00;93.50
23550;DHT22;11953;49.010;8.608;2023-05-07T10:06:21;28.50;93.60
23550;DHT22;11953;49.010;8.608;2023-05-07T10:09:10;28.20;94.50
23550;DHT22;11953;49.010;8.608;2023-05-07T10:11:58;28.70;93.90
23550;DHT22;11953;49.010;8.608;2023-05-07T10:14:47;29.20;93.60
23550;DHT22;11953;49.010;8.608;2023-05-07T10:17:36;29.90;94.20
23550;DHT22;11953;49.010;8.608;2023-05-07T10:20:24;30.50;92.80
23550;DHT22;11953;49.010;8.608;2023-05-07T10:23:15;30.50;93.80
23550;DHT22;11953;49.010;8.608;2023-05-07T10:26:08;30.20;92.00
23550;DHT22;11953;49.010;8.608;2023-05-07T10:28:58;30.10;92.00
23550;DHT22;11953;49.010;8.608;2023-05-07T10:31:55;29.60;92.10
23550;DHT22;11953;49.010;8.608;2023-05-07T10:34:49;29.60;93.30
23550;DHT22;11953;49.010;8.608;2023-05-07T10:37:37;29.80;92.40
23550;DHT22;11953;49.010;8.608;2023-05-07T10:40:24;29.40;92.10
23550;DHT22;11953;49.010;8.608;2023-05-07T10:43:14;29.40;93.30
23550;DHT22;11953;49.010;8.608;2023-05-07T10:46:15;29.70;93.90
23550;DHT22;11953;49.010;8.608;2023-05-07T10:49:09;29.50;93.70
23550;DHT22;11953;49.010;8.608;2023-05-07T10:52:13;29.50;93.80
23550;DHT22;11953;49.010;8.608;2023-05-07T10:55:24;29.60;92.80
23550;DHT22;11953;49.010;8.608;2023-05-07T10:58:24;29.60;93.90
23550;DHT22;11953;49.010;8.608;2023-05-07T11:01:54;30.10;92.60
23550;DHT22;11953;49.010;8.608;2023-05-07T11:05:19;30.20;90.70
23550;DHT22;11953;49.010;8.608;2023-05-07T11:08:17;30.30;91.80
23550;DHT22;11953;49.010;8.608;2023-05-07T11:11:11;29.90;91.30
23550;DHT22;11953;49.010;8.608;2023-05-07T11:14:04;29.90;91.90
23550;DHT22;11953;49.010;8.608;2023-05-07T11:17:02;30.10;92.80
23550;DHT22;11953;49.010;8.608;2023-05-07T11:19:50;30.30;92.60
23550;DHT22;11953;49.010;8.608;2023-05-07T11:22:47;30.40;92.60
23550;DHT22;11953;49.010;8.608;2023-05-07T11:26:00;30.40;91.50
23550;DHT22;11953;49.010;8.608;2023-05-07T11:28:48;30.50;91.50
23550;DHT22;11953;49.010;8.608;2023-05-07T11:31:38;30.40;92.10
23550;DHT22;11953;49.010;8.608;2023-05-07T11:34:26;30.40;91.40
23550;DHT22;11953;49.010;8.608;2023-05-07T11:37:17;30.50;91.50
23550;DHT22;11953;49.010;8.608;2023-05-07T11:40:17;30.20;91.10
23550;DHT22;11953;49.010;8.608;2023-05-07T11:43:10;30.50;90.30
23550;DHT22;11953;49.010;8.608;2023-05-07T11:46:05;30.60;90.50
23550;DHT22;11953;49.010;8.608;2023-05-07T11:48:53;30.50;90.60
23550;DHT22;11953;49.010;8.608;2023-05-07T11:51:40;30.20;89.30
23550;DHT22;11953;49.010;8.608;2023-05-07T11:54:35;30.10;90.40
23550;DHT22;11953;49.010;8.608;2023-05-07T11:57:23;30.30;90.10
23550;DHT22;11953;49.010;8.608;2023-05-07T12:00:11;29.90;90.20
23550;DHT22;11953;49.010;8.608;2023-05-07T12:03:03;29.30;90.40
23550;DHT22;11953;49.010;8.608;2023-05-07T12:05:51;29.50;91.80
23550;DHT22;11953;49.010;8.608;2023-05-07T12:08:39;29.60;91.50
23550;DHT22;11953;49.010;8.608;2023-05-07T12:11:26;29.20;91.90
23550;DHT22;11953;49.010;8.608;2023-05-07T12:14:13;29.10;91.80
23550;DHT22;11953;49.010;8.608;2023-05-07T12:17:01;29.00;92.00
23550;DHT22;11953;49.010;8.608;2023-05-07T12:19:48;28.60;90.90
23550;DHT22;11953;49.010;8.608;2023-05-07T12:22:37;28.80;91.30
23550;DHT22;11953;49.010;8.608;2023-05-07T12:25:23;29.10;92.70
23550;DHT22;11953;49.010;8.608;2023-05-07T12:28:13;29.00;91.70
23550;DHT22;11953;49.010;8.608;2023-05-07T12:30:59;28.80;92.60
23550;DHT22;11953;49.010;8.608;2023-05-07T12:33:46;28.70;93.00
23550;DHT22;11953;49.010;8.608;2023-05-07T12:36:40;28.40;92.90
23550;DHT22;11953;49.010;8.608;2023-05-07T12:39:28;28.00;93.00
23550;DHT22;11953;49.010;8.608;2023-05-07T12:42:15;27.60;93.10
23550;DHT22;11953;49.010;8.608;2023-05-07T12:45:08;27.30;93.40
23550;DHT22;11953;49.010;8.608;2023-05-07T12:47:56;27.10;93.70
23550;DHT22;11953;49.010;8.608;2023-05-07T12:50:43;26.80;94.20
23550;DHT22;11953;49.010;8.608;2023-05-07T12:53:30;26.50;93.40
23550;DHT22;11953;49.010;8.608;2023-05-07T12:56:18;26.10;93.90
23550;DHT22;11953;49.010;8.608;2023-05-07T12:59:06;25.70;95.60
23550;DHT22;11953;49.010;8.608;2023-05-07T13:01:53;25.50;95.00
23550;DHT22;11953;49.010;8.608;2023-05-07T13:04:40;25.10;95.00
23550;DHT22;11953;49.010;8.608;2023-05-07T13:07:26;24.70;96.30
23550;DHT22;11953;49.010;8.608;2023-05-07T13:10:15;24.60;96.50
23550;DHT22;11953;49.010;8.608;2023-05-07T13:13:02;24.60;96.30
23550;DHT22;11953;49.010;8.608;2023-05-07T13:15:50;24.40;96.90
23550;DHT22;11953;49.010;8.608;2023-05-07T13:18:37;23.90;95.90
23550;DHT22;11953;49.010;8.608;2023-05-07T13:21:24;23.10;97.00
23550;DHT22;11953;49.010;8.608;2023-05-07T13:24:12;22.40;96.50
23550;DHT22;11953;49.010;8.608;2023-05-07T13:26:58;21.80;95.70
23550;DHT22;11953;49.010;8.608;2023-05-07T13:29:46;21.20;97.70
23550;DHT22;11953;49.010;8.608;2023-05-07T13:32:33;20.60;99.30
23550;DHT22;11953;49.010;8.608;2023-05-07T13:35:20;20.10;99.90
23550;DHT22;11953;49.010;8.608;2023-05-07T13:38:07;20.20;99.90
23550;DHT22;11953;49.010;8.608;2023-05-07T13:40:53;20.00;99.90
23550;DHT22;11953;49.010;8.608;2023-05-07T13:43:40;19.10;99.90
23550;DHT22;11953;49.010;8.608;2023-05-07T13:46:28;18.00;99.90
23550;DHT22;11953;49.010;8.608;2023-05-07T13:49:15;17.00;99.90
23550;DHT22;11953;49.010;8.608;2023-05-07T13:52:01;15.80;99.90
23550;DHT22;11953;49.010;8.608;2023-05-07T13:54:48;15.10;99.90
23550;DHT22;11953;49.010;8.608;2023-05-07T13:57:38;15.30;99.90
23550;DHT22;11953;49.010;8.608;2023-05-07T14:00:24;15.50;99.90
23550;DHT22;11953;49.010;8.608;2023-05-07T14:03:12;15.90;99.90
23550;DHT22;11953;49.010;8.608;2023-05-07T14:05:59;16.10;99.90
23550;DHT22;11953;49.010;8.608;2023-05-07T14:08:46;15.90;99.90
23550;DHT22;11953;49.010;8.608;2023-05-07T14:11:33;16.10;99.90
23550;DHT22;11953;49.010;8.608;2023-05-07T14:14:21;16.20;99.90
23550;DHT22;11953;49.010;8.608;2023-05-07T14:17:08;16.50;99.90
23550;DHT22;11953;49.010;8.608;2023-05-07T14:19:57;16.80;99.90
23550;DHT22;11953;49.010;8.608;2023-05-07T14:22:44;17.00;99.90
23550;DHT22;11953;49.010;8.608;2023-05-07T14:25:30;17.20;99.90
23550;DHT22;11953;49.010;8.608;2023-05-07T14:28:20;17.00;99.90
23550;DHT22;11953;49.010;8.608;2023-05-07T14:31:06;17.00;99.90
23550;DHT22;11953;49.010;8.608;2023-05-07T14:33:53;17.10;99.90
23550;DHT22;11953;49.010;8.608;2023-05-07T14:36:41;17.00;99.90
23550;DHT22;11953;49.010;8.608;2023-05-07T14:39:29;16.80;99.90
23550;DHT22;11953;49.010;8.608;2023-05-07T14:42:15;16.80;99.90
23550;DHT22;11953;49.010;8.608;2023-05-07T14:45:03;16.70;99.90
23550;DHT22;11953;49.010;8.608;2023-05-07T14:47:50;16.80;99.90
23550;DHT22;11953;49.010;8.608;2023-05-07T14:50:37;16.90;99.90
23550;DHT22;11953;49.010;8.608;2023-05-07T14:53:27;17.00;99.90
23550;DHT22;11953;49.010;8.608;2023-05-07T14:56:13;17.10;99.90
23550;DHT22;11953;49.010;8.608;2023-05-07T14:59:00;17.20;99.90
23550;DHT22;11953;49.010;8.608;2023-05-07T15:01:48;17.40;99.90
23550;DHT22;11953;49.010;8.608;2023-05-07T15:04:35;17.70;99.90
23550;DHT22;11953;49.010;8.608;2023-05-07T15:07:23;17.70;99.90
23550;DHT22;11953;49.010;8.608;2023-05-07T15:10:11;18.00;99.90
23550;DHT22;11953;49.010;8.608;2023-05-07T15:12:58;18.30;99.90
23550;DHT22;11953;49.010;8.608;2023-05-07T15:15:45;18.60;99.90
23550;DHT22;11953;49.010;8.608;2023-05-07T15:18:31;18.80;99.90
23550;DHT22;11953;49.010;8.608;2023-05-07T15:21:18;18.90;99.90
23550;DHT22;11953;49.010;8.608;2023-05-07T15:24:05;19.10;99.90
23550;DHT22;11953;49.010;8.608;2023-05-07T15:26:55;19.30;99.90
23550;DHT22;11953;49.010;8.608;2023-05-07T15:29:43;19.30;99.90
23550;DHT22;11953;49.010;8.608;2023-05-07T15:32:29;19.00;99.90
23550;DHT22;11953;49.010;8.608;2023-05-07T15:35:16;19.10;99.90
23550;DHT22;11953;49.010;8.608;2023-05-07T15:38:07;18.90;99.90
23550;DHT22;11953;49.010;8.608;2023-05-07T15:40:53;18.90;99.90
23550;DHT22;11953;49.010;8.608;2023-05-07T15:43:47;19.00;99.90
23550;DHT22;11953;49.010;8.608;2023-05-07T15:46:33;19.00;99.90
23550;DHT22;11953;49.010;8.608;2023-05-07T15:49:20;18.90;99.90
23550;DHT22;11953;49.010;8.608;2023-05-07T15:52:07;18.70;99.90
23550;DHT22;11953;49.010;8.608;2023-05-07T15:54:55;18.80;99.90
23550;DHT22;11953;49.010;8.608;2023-05-07T15:57:42;18.70;99.90
23550;DHT22;11953;49.010;8.608;2023-05-07T16:00:30;18.70;99.90
23550;DHT22;11953;49.010;8.608;2023-05-07T16:03:17;18.70;99.90
23550;DHT22;11953;49.010;8.608;2023-05-07T16:06:04;18.70;99.90
23550;DHT22;11953;49.010;8.608;2023-05-07T16:08:51;18.80;99.90
23550;DHT22;11953;49.010;8.608;2023-05-07T16:11:37;18.90;99.90
23550;DHT22;11953;49.010;8.608;2023-05-07T16:14:24;19.10;99.90
23550;DHT22;11953;49.010;8.608;2023-05-07T16:17:12;18.90;99.90
23550;DHT22;11953;49.010;8.608;2023-05-07T16:19:59;18.60;99.90
23550;DHT22;11953;49.010;8.608;2023-05-07T16:22:46;18.40;99.90
23550;DHT22;11953;49.010;8.608;2023-05-07T16:25:33;18.20;99.90
23550;DHT22;11953;49.010;8.608;2023-05-07T16:28:20;18.10;99.90
23550;DHT22;11953;49.010;8.608;2023-05-07T16:31:09;18.10;99.90
23550;DHT22;11953;49.010;8.608;2023-05-07T16:33:58;18.00;99.90
23550;DHT22;11953;49.010;8.608;2023-05-07T16:36:45;17.80;99.90
23550;DHT22;11953;49.010;8.608;2023-05-07T16:39:31;17.80;99.90
23550;DHT22;11953;49.010;8.608;2023-05-07T16:42:18;17.70;99.90
23550;DHT22;11953;49.010;8.608;2023-05-07T16:45:05;17.60;99.90
23550;DHT22;11953;49.010;8.608;2023-05-07T16:47:53;17.60;99.90
23550;DHT22;11953;49.010;8.608;2023-05-07T16:50:42;17.40;99.90
23550;DHT22;11953;49.010;8.608;2023-05-07T16:53:29;17.10;99.90
23550;DHT22;11953;49.010;8.608;2023-05-07T16:56:16;17.00;99.90
23550;DHT22;11953;49.010;8.608;2023-05-07T16:59:03;16.80;99.90
23550;DHT22;11953;49.010;8.608;2023-05-07T17:01:50;16.60;99.90
23550;DHT22;11953;49.010;8.608;2023-05-07T17:04:37;16.60;99.90
23550;DHT22;11953;49.010;8.608;2023-05-07T17:07:26;16.70;99.90
23550;DHT22;11953;49.010;8.608;2023-05-07T17:10:13;16.80;99.90
23550;DHT22;11953;49.010;8.608;2023-05-07T17:12:59;16.80;99.90
23550;DHT22;11953;49.010;8.608;2023-05-07T17:15:46;16.70;99.90
23550;DHT22;11953;49.010;8.608;2023-05-07T17:18:33;16.80;99.90
23550;DHT22;11953;49.010;8.608;2023-05-07T17:21:20;16.80;99.90
23550;DHT22;11953;49.010;8.608;2023-05-07T17:24:08;16.90;99.90
23550;DHT22;11953;49.010;8.608;2023-05-07T17:26:55;17.00;99.90
23550;DHT22;11953;49.010;8.608;2023-05-07T17:29:41;17.00;99.90
23550;DHT22;11953;49.010;8.608;2023-05-07T17:32:28;16.80;99.90
23550;DHT22;11953;49.010;8.608;2023-05-07T17:35:17;16.60;99.90
23550;DHT22;11953;49.010;8.608;2023-05-07T17:38:03;16.40;99.90
23550;DHT22;11953;49.010;8.608;2023-05-07T17:40:51;16.30;99.90
23550;DHT22;11953;49.010;8.608;2023-05-07T17:43:38;16.50;99.90
23550;DHT22;11953;49.010;8.608;2023-05-07T17:46:24;16.50;99.90
23550;DHT22;11953;49.010;8.608;2023-05-07T17:49:11;16.40;99.90
23550;DHT22;11953;49.010;8.608;2023-05-07T17:51:58;16.40;99.90
23550;DHT22;11953;49.010;8.608;2023-05-07T17:54:44;16.40;99.90
23550;DHT22;11953;49.010;8.608;2023-05-07T17:57:33;16.50;99.90
23550;DHT22;11953;49.010;8.608;2023-05-07T18:00:21;16.50;99.90
23550;DHT22;11953;49.010;8.608;2023-05-07T18:03:08;16.40;99.90
23550;DHT22;11953;49.010;8.608;2023-05-07T18:05:55;16.40;99.90
23550;DHT22;11953;49.010;8.608;2023-05-07T18:08:42;16.60;99.90
23550;DHT22;11953;49.010;8.608;2023-05-07T18:11:29;16.80;99.90
23550;DHT22;11953;49.010;8.608;2023-05-07T18:14:18;16.90;99.90
23550;DHT22;11953;49.010;8.608;2023-05-07T18:17:08;16.90;99.90
23550;DHT22;11953;49.010;8.608;2023-05-07T18:19:55;16.80;99.90
23550;DHT22;11953;49.010;8.608;2023-05-07T18:22:42;16.60;99.90
23550;DHT22;11953;49.010;8.608;2023-05-07T18:25:28;16.70;99.90
23550;DHT22;11953;49.010;8.608;2023-05-07T18:28:15;16.70;99.90
23550;DHT22;11953;49.010;8.608;2023-05-07T18:31:03;16.50;99.90
23550;DHT22;11953;49.010;8.608;2023-05-07T18:33:50;16.40;99.90
23550;DHT22;11953;49.010;8.608;2023-05-07T18:36:38;16.40;99.90
23550;DHT22;11953;49.010;8.608;2023-05-07T18:39:25;16.40;99.90
23550;DHT22;11953;49.010;8.608;2023-05-07T18:42:12;16.60;99.90
23550;DHT22;11953;49.010;8.608;2023-05-07T18:44:58;16.70;99.90
23550;DHT22;11953;49.010;8.608;2023-05-07T18:47:47;16.80;99.90
23550;DHT22;11953;49.010;8.608;2023-05-07T18:50:33;17.00;99.90
23550;DHT22;11953;49.010;8.608;2023-05-07T18:53:20;17.20;99.90
23550;DHT22;11953;49.010;8.608;2023-05-07T18:56:07;17.20;99.90
23550;DHT22;11953;49.010;8.608;2023-05-07T18:58:54;17.10;99.90
23550;DHT22;11953;49.010;8.608;2023-05-07T19:01:40;17.00;99.90
23550;DHT22;11953;49.010;8.608;2023-05-07T19:04:29;16.90;99.90
23550;DHT22;11953;49.010;8.608;2023-05-07T19:07:16;16.80;99.90
23550;DHT22;11953;49.010;8.608;2023-05-07T19:10:03;16.70;99.90
23550;DHT22;11953;49.010;8.608;2023-05-07T19:12:51;16.70;99.90
23550;DHT22;11953;49.010;8.608;2023-05-07T19:15:41;16.70;99.90
23550;DHT22;11953;49.010;8.608;2023-05-07T19:18:27;16.50;99.90
23550;DHT22;11953;49.010;8.608;2023-05-07T19:21:17;16.40;99.90
23550;DHT22;11953;49.010;8.608;2023-05-07T19:24:04;16.20;99.90
23550;DHT22;11953;49.010;8.608;2023-05-07T19:26:51;16.20;99.90
23550;DHT22;11953;49.010;8.608;2023-05-07T19:29:39;16.10;99.90
23550;DHT22;11953;49.010;8.608;2023-05-07T19:32:25;16.20;99.90
23550;DHT22;11953;49.010;8.608;2023-05-07T19:35:12;16.20;99.90
23550;DHT22;11953;49.010;8.608;2023-05-07T19:38:01;16.20;99.90
23550;DHT22;11953;49.010;8.608;2023-05-07T19:40:47;16.00;99.90
23550;DHT22;11953;49.010;8.608;2023-05-07T19:43:35;16.00;99.90
23550;DHT22;11953;49.010;8.608;2023-05-07T19:46:22;15.90;99.90
23550;DHT22;11953;49.010;8.608;2023-05-07T19:49:09;15.90;99.90
23550;DHT22;11953;49.010;8.608;2023-05-07T19:51:57;15.90;99.90
23550;DHT22;11953;49.010;8.608;2023-05-07T19:54:46;16.10;99.90
23550;DHT22;11953;49.010;8.608;2023-05-07T19:57:33;16.00;99.90
23550;DHT22;11953;49.010;8.608;2023-05-07T20:00:20;16.10;99.90
23550;DHT22;11953;49.010;8.608;2023-05-07T20:03:10;16.20;99.90
23550;DHT22;11953;49.010;8.608;2023-05-07T20:06:03;16.30;99.90
23550;DHT22;11953;49.010;8.608;2023-05-07T20:08:50;16.40;99.90
23550;DHT22;11953;49.010;8.608;2023-05-07T20:11:38;16.40;99.90
23550;DHT22;11953;49.010;8.608;2023-05-07T20:14:25;16.40;99.90
23550;DHT22;11953;49.010;8.608;2023-05-07T20:17:12;16.50;99.90
23550;DHT22;11953;49.010;8.608;2023-05-07T20:19:58;16.50;99.90
23550;DHT22;11953;49.010;8.608;2023-05-07T20:22:45;16.60;99.90
23550;DHT22;11953;49.010;8.608;2023-05-07T20:25:32;16.60;99.90
23550;DHT22;11953;49.010;8.608;2023-05-07T20:28:20;16.60;99.90
23550;DHT22;11953;49.010;8.608;2023-05-07T20:31:07;16.70;99.90
23550;DHT22;11953;49.010;8.608;2023-05-07T20:33:53;16.60;99.90
23550;DHT22;11953;49.010;8.608;2023-05-07T20:36:40;16.70;99.90
23550;DHT22;11953;49.010;8.608;2023-05-07T20:39:27;16.90;99.90
23550;DHT22;11953;49.010;8.608;2023-05-07T20:42:13;16.90;99.90
23550;DHT22;11953;49.010;8.608;2023-05-07T20:45:02;16.70;99.90
23550;DHT22;11953;49.010;8.608;2023-05-07T20:47:48;16.80;99.90
23550;DHT22;11953;49.010;8.608;2023-05-07T20:50:35;16.70;99.90
23550;DHT22;11953;49.010;8.608;2023-05-07T20:53:22;16.70;99.90
23550;DHT22;11953;49.010;8.608;2023-05-07T20:56:09;16.80;99.90
23550;DHT22;11953;49.010;8.608;2023-05-07T20:58:55;16.70;99.90
23550;DHT22;11953;49.010;8.608;2023-05-07T21:01:43;16.60;99.90
23550;DHT22;11953;49.010;8.608;2023-05-07T21:04:30;16.60;99.90
23550;DHT22;11953;49.010;8.608;2023-05-07T21:07:17;16.50;99.90
23550;DHT22;11953;49.010;8.608;2023-05-07T21:10:04;16.30;99.90
23550;DHT22;11953;49.010;8.608;2023-05-07T21:12:51;16.00;99.90
23550;DHT22;11953;49.010;8.608;2023-05-07T21:15:38;15.80;99.90
23550;DHT22;11953;49.010;8.608;2023-05-07T21:18:27;15.60;99.90
23550;DHT22;11953;49.010;8.608;2023-05-07T21:21:15;15.50;99.90
23550;DHT22;11953;49.010;8.608;2023-05-07T21:24:02;15.40;99.90
23550;DHT22;11953;49.010;8.608;2023-05-07T21:26:49;15.40;99.90
23550;DHT22;11953;49.010;8.608;2023-05-07T21:29:36;15.50;99.90
23550;DHT22;11953;49.010;8.608;2023-05-07T21:32:22;15.50;99.90
23550;DHT22;11953;49.010;8.608;2023-05-07T21:35:10;15.50;99.90
23550;DHT22;11953;49.010;8.608;2023-05-07T21:37:57;15.60;99.90
23550;DHT22;11953;49.010;8.608;2023-05-07T21:40:45;15.50;99.90
23550;DHT22;11953;49.010;8.608;2023-05-07T21:43:32;15.50;99.90
23550;DHT22;11953;49.010;8.608;2023-05-07T21:46:18;15.50;99.90
23550;DHT22;11953;49.010;8.608;2023-05-07T21:49:05;15.40;99.90
23550;DHT22;11953;49.010;8.608;2023-05-07T21:51:54;15.30;99.90
23550;DHT22;11953;49.010;8.608;2023-05-07T21:54:41;15.40;99.90
23550;DHT22;11953;49.010;8.608;2023-05-07T21:57:27;15.60;99.90
23550;DHT22;11953;49.010;8.608;2023-05-07T22:00:14;15.60;99.90
23550;DHT22;11953;49.010;8.608;2023-05-07T22:03:01;15.60;99.90
23550;DHT22;11953;49.010;8.608;2023-05-07T22:05:48;15.80;99.90
23550;DHT22;11953;49.010;8.608;2023-05-07T22:08:36;15.90;99.90
23550;DHT22;11953;49.010;8.608;2023-05-07T22:11:23;16.00;99.90
23550;DHT22;11953;49.010;8.608;2023-05-07T22:14:09;16.10;99.90
23550;DHT22;11953;49.010;8.608;2023-05-07T22:16:56;16.20;99.90
23550;DHT22;11953;49.010;8.608;2023-05-07T22:19:43;16.20;99.90
23550;DHT22;11953;49.010;8.608;2023-05-07T22:22:29;16.30;99.90
23550;DHT22;11953;49.010;8.608;2023-05-07T22:25:17;16.30;99.90
23550;DHT22;11953;49.010;8.608;2023-05-07T22:28:04;16.40;99.90
23550;DHT22;11953;49.010;8.608;2023-05-07T22:30:50;16.30;99.90
23550;DHT22;11953;49.010;8.608;2023-05-07T22:33:37;16.30;99.90
23550;DHT22;11953;49.010;8.608;2023-05-07T22:36:24;16.30;99.90
23550;DHT22;11953;49.010;8.608;2023-05-07T22:39:10;16.30;99.90
23550;DHT22;11953;49.010;8.608;2023-05-07T22:41:58;16.30;99.90
23550;DHT22;11953;49.010;8.608;2023-05-07T22:44:45;16.30;99.90
23550;DHT22;11953;49.010;8.608;2023-05-07T22:47:32;16.30;99.90
23550;DHT22;11953;49.010;8.608;2023-05-07T22:50:18;16.30;99.90
23550;DHT22;11953;49.010;8.608;2023-05-07T22:53:06;16.30;99.90
23550;DHT22;11953;49.010;8.608;2023-05-07T22:55:52;16.40;99.90
23550;DHT22;11953;49.010;8.608;2023-05-07T22:58:40;16.40;99.90
23550;DHT22;11953;49.010;8.608;2023-05-07T23:01:26;16.50;99.90
23550;DHT22;11953;49.010;8.608;2023-05-07T23:04:13;16.50;99.90